首页
METAR-TAF:

METAR-TAF

机场 :

臺灣桃園國際機場

臺北, 台湾

纬度: 25-05N, 经度: 121-13E, 海拔: 33米

当前天气观测

该预报发布于20分钟前的23:30 UTC
风速14节,风向东转东北
温度 21°C
湿度 64%
气压 1018 hPa
能见度10公里或以上
少量云层高于1500英尺

METAR: RCTP 142330Z 06014KT 9999 FEW015 21/14 Q1018 NOSIG RMK A3006

时间: 07:50 (23:50 UTC)

预报

该预报发布于50分钟前的23:00 UTC
预报有效从15日的 00点(UTC)到 16日的 06点(UTC)
风速10节,风向东转东北
能见度10公里或以上
少量云层高于1500英尺
成为
从 15日的 00点(UTC)到 15日的 02点(UTC)
风速18节,风向东转东北
成为
从 15日的 09点(UTC)到 15日的 11点(UTC)
风速12节,风向
短暂存在
从 15日的 18点(UTC)到 15日的 24点(UTC)
风速10节,风向东北
少量云层高于1200英尺
多云层高于2400英尺
多云层高于5000英尺

TAF: RCTP 142300Z 1500/1606 07010KT 9999 FEW015 BECMG 1500/1502 06018KT BECMG 1509/1511 08012KT TEMPO 1518/1524 05010KT FEW012 BKN024 BKN050

超过4000个机场的气象观测和天气预报(METAR&TAF报告)。

可查询的气象台以黄色和红色小点在地图上表示。

将鼠标移到小点上方,可查看气象台名称。

然后点击查看天气观测和预报。

如需切换地图:点击带黑十字的绿色按钮放大地图;点击带横线的绿色按钮缩小地图;或者点击绿色箭头查看邻近地区的地图。


METAR-TAF: